Aeroporto :
LOGIN :

Iscrizione | Disclaimer

   EN    FR    IT 

 










Sommario :    VFR   VFR Marginale   IFR   IFR Intensivo   IFR Molto Intensivo
Visibilità : 
Base nubi : 
>= 8 km
>= 3000ft
5 / 8 km
1000 / 3000 ft
1500m / 5 km
500 / 1000 ft
800 / 1500m
200 / 500 ft
< 800m
< 200 ft
Simboli :   Temporali  Nebbia  Neve Forte  Precipitazioni Forti  Vento > 20 kt
SIGMETs :   Varie  Temporali  Ghiacco  Turbolenza  Onda orograficha  Ceneri Vulcaniche






- Altitudine del aeroporto : 238 ft
- Codice IATA : FAB


EGLF - Farnborough

ULTIMO METAR :
  • 060950Z 22016KT 9999 SCT010 BKN015 12/11 Q1006

METARs OBSOLETI :
  • 060920Z 22015KT 5000 -DZ SCT009 BKN015 12/10 Q1006 REDZ
  • 060850Z 22017KT 3200 DZ SCT009 BKN015 11/10 Q1006
  • 060820Z 22018KT 9999 VCSH SCT009 BKN015 11/10 Q1006
  • 060750Z 22019KT 8000 -DZRA SCT011 BKN015 12/10 Q1006
  • 060720Z 21017KT 9999 -RA SCT009 BKN015 11/10 Q1006 RERA

TAF AMD TAF EGLF
Valido dal 06 a 09 ore il 06 a 18 ore UTC


060928Z 0609/0618 23015KT 9999 BKN015
TEMPO 0609/0613 7000 -RA BKN007
PROB40
TEMPO 0609/0618 24018G28KT
PROB30
TEMPO 0609/0613 3000 RADZ BKN004
PROB30
TEMPO 0615/0618 6000 SHRA
ATIS : +44 09063 800 400 (*282)



MetMap, La meteo Aeronautica in un colpo d'occhio ! - Copyright ORBIFLY Dicembre 2007 - Disclaimer

ORBIFLY MET'MAP TEAM :

Programmazione e sviluppo : Alexandra Zaïnal
Concezione : Baudouin d'Aumeries
Aiuto per la programmazione : Marc-Olivier Méhu
Supporto tecnico e logistico : Manuel Goepfert
Aiuto per la traduzione : Arnaldo La Scala

Contatto : metmap@orbifly.com




FONTI E CREDITI :

   NOAA